Time;durP1;ratioP1;P1;durP2;ratioP2;P2;SDS_P1;SDS_P2;PMS_P1;PMS_P2;Temp;Humidity;BMP_temperature;BMP_pressure;BME280_temperature;BME280_humidity;BME280_pressure;Samples;Min_cycle;Max_cycle;Signal;HPM_P1;HPM_P2
2022/10/10 00:01:28;;;;;;;9.95;8.90;;;;;;;7.28;100.00;101285.06;5099309;28;20077;-50
2022/10/10 00:03:53;;;;;;;10.15;9.15;;;;;;;7.10;100.00;101255.59;5100504;28;20028;-53
2022/10/10 00:06:19;;;;;;;12.98;9.15;;;;;;;7.26;100.00;101281.59;5107809;28;20214;-56
2022/10/10 00:08:45;;;;;;;13.65;10.02;;;;;;;7.25;100.00;101277.22;5095596;28;20039;-55
2022/10/10 00:11:11;;;;;;;14.45;9.70;;;;;;;7.15;100.00;101257.25;5105305;28;20432;-53
2022/10/10 00:13:36;;;;;;;10.40;9.00;;;;;;;6.88;100.00;101214.84;5101696;28;20035;-53
2022/10/10 00:16:02;;;;;;;10.27;8.90;;;;;;;7.20;100.00;101284.28;5097936;28;20028;-52
2022/10/10 00:18:28;;;;;;;13.48;10.27;;;;;;;7.16;100.00;101266.00;5108921;28;20057;-55
2022/10/10 00:20:53;;;;;;;12.75;9.60;;;;;;;7.07;100.00;101256.50;5094191;28;20043;-55
2022/10/10 00:23:19;;;;;;;10.77;9.68;;;;;;;7.15;100.00;101270.34;5105083;28;20035;-55
2022/10/10 00:25:45;;;;;;;12.98;9.43;;;;;;;6.83;100.00;101209.66;5102758;28;20032;-56
2022/10/10 00:28:11;;;;;;;11.50;10.30;;;;;;;7.19;100.00;101264.22;5096356;28;20550;-55
2022/10/10 00:30:37;;;;;;;13.15;10.27;;;;;;;6.86;100.00;101198.31;5107486;28;20485;-56
2022/10/10 00:33:02;;;;;;;13.98;10.13;;;;;;;7.26;100.00;101265.88;5096690;28;20157;-53
2022/10/10 00:35:28;;;;;;;16.33;10.55;;;;;;;6.92;100.00;101191.22;5102451;28;20039;-52
2022/10/10 00:37:53;;;;;;;18.45;10.55;;;;;;;7.29;100.00;101250.13;5103879;28;20498;-54
2022/10/10 00:40:19;;;;;;;17.60;10.05;;;;;;;7.30;100.00;101261.44;5096558;28;20028;-50
2022/10/10 00:42:44;;;;;;;12.00;9.25;;;;;;;7.27;100.00;101264.97;5108660;28;20039;-49
2022/10/10 00:45:33;;;;;;;11.90;9.32;;;;;;;6.87;100.00;101187.81;5097795;28;20028;-53
2022/10/10 00:48:10;;;;;;;13.45;9.73;;;;;;;7.22;100.00;101244.97;5099231;28;20558;-55
2022/10/10 00:50:43;;;;;;;14.70;9.52;;;;;;;7.15;100.00;101232.88;5108513;28;20040;-55
2022/10/10 00:53:09;;;;;;;14.05;9.75;;;;;;;7.17;100.00;101239.81;5096347;28;20051;-56
2022/10/10 00:55:35;;;;;;;13.52;10.90;;;;;;;6.90;100.00;101194.75;5084747;28;20048;-52
2022/10/10 00:58:00;;;;;;;16.33;9.98;;;;;;;6.85;100.00;101192.22;5103576;28;20030;-54
2022/10/10 01:00:26;;;;;;;11.10;10.00;;;;;;;6.92;100.00;101209.56;5108952;28;20124;-58
2022/10/10 01:02:51;;;;;;;10.98;9.95;;;;;;;7.11;100.00;101241.63;5095142;28;20115;-59
2022/10/10 01:05:17;;;;;;;12.27;9.63;;;;;;;7.07;100.00;101232.94;5105145;28;20028;-54
2022/10/10 01:07:43;;;;;;;13.55;10.05;;;;;;;6.88;100.00;101196.53;5101980;28;20067;-54
2022/10/10 01:10:11;;;;;;;13.70;10.52;;;;;;;7.04;100.00;101232.09;5096715;28;20563;-55
2022/10/10 01:12:41;;;;;;;13.35;9.57;;;;;;;6.80;100.00;101188.75;5108502;28;20034;-54
2022/10/10 01:15:27;;;;;;;14.25;10.57;;;;;;;6.66;100.00;101165.38;5097087;28;20038;-52
2022/10/10 01:18:22;;;;;;;12.32;9.93;;;;;;;7.04;100.00;101232.97;5098674;28;20504;-50
2022/10/10 01:21:02;;;;;;;15.75;10.25;;;;;;;6.66;100.00;101174.97;5106548;28;20071;-53
2022/10/10 01:24:05;;;;;;;12.95;9.85;;;;;;;6.99;100.00;101229.53;5098761;28;20031;-55
2022/10/10 01:27:04;;;;;;;13.05;10.23;;;;;;;6.98;100.00;101227.81;5093383;28;20051;-56
2022/10/10 01:29:46;;;;;;;11.27;9.93;;;;;;;6.96;100.00;101220.84;5088558;28;20028;-56
2022/10/10 01:32:21;;;;;;;12.25;9.13;;;;;;;6.51;100.00;101142.00;5108473;28;20030;-52
2022/10/10 01:35:14;;;;;;;11.68;9.88;;;;;;;6.90;100.00;101221.81;5097101;28;20023;-53
2022/10/10 01:38:01;;;;;;;11.90;9.77;;;;;;;6.91;100.00;101206.97;5094490;28;20036;-53
2022/10/10 01:40:36;;;;;;;16.90;10.43;;;;;;;6.87;100.00;101206.13;5097428;28;20179;-51
2022/10/10 01:43:03;;;;;;;12.55;10.25;;;;;;;6.77;100.00;101188.81;5098584;28;20032;-56
2022/10/10 01:45:32;;;;;;;10.75;9.45;;;;;;;6.83;100.00;101198.34;5088518;28;20418;-52
2022/10/10 01:48:01;;;;;;;18.45;11.02;;;;;;;6.46;100.00;101137.72;5106200;28;20063;-54
2022/10/10 01:50:28;;;;;;;11.60;10.25;;;;;;;6.65;100.00;101187.22;5110473;28;20043;-56
2022/10/10 01:53:09;;;;;;;12.45;10.75;;;;;;;6.70;100.00;101195.00;5080346;28;20027;-51
2022/10/10 01:55:50;;;;;;;15.38;10.02;;;;;;;6.30;100.00;101139.63;5104261;28;20047;-51
2022/10/10 01:58:24;;;;;;;16.67;10.75;;;;;;;6.62;100.00;101195.09;5109825;28;20027;-56
2022/10/10 02:01:01;;;;;;;17.58;10.90;;;;;;;6.60;100.00;101193.34;5096673;28;20113;-56
2022/10/10 02:03:30;;;;;;;13.27;11.50;;;;;;;6.44;100.00;101163.88;5106474;28;20028;-55
2022/10/10 02:05:59;;;;;;;15.95;10.20;;;;;;;6.43;100.00;101161.28;5106687;28;20031;-56
2022/10/10 02:08:33;;;;;;;12.68;10.38;;;;;;;6.52;100.00;101184.72;5096919;28;20542;-53
2022/10/10 02:11:02;;;;;;;14.02;10.82;;;;;;;6.13;100.00;101112.78;5081473;28;20077;-54
2022/10/10 02:13:34;;;;;;;19.63;11.40;;;;;;;6.19;100.00;101125.78;5106342;28;20486;-55
2022/10/10 02:16:00;;;;;;;16.55;10.88;;;;;;;6.48;100.00;101175.19;5107090;28;20028;-53
2022/10/10 02:18:28;;;;;;;14.38;10.05;;;;;;;6.43;100.00;101163.88;5096512;28;20499;-50
2022/10/10 02:20:54;;;;;;;13.85;10.18;;;;;;;6.45;100.00;101165.59;5079681;28;20127;-52
2022/10/10 02:23:21;;;;;;;13.30;10.75;;;;;;;6.07;100.00;101099.78;5106106;28;20039;-52
2022/10/10 02:25:50;;;;;;;16.17;11.07;;;;;;;6.41;100.00;101155.19;5103676;28;20254;-53
2022/10/10 02:28:30;;;;;;;17.73;11.43;;;;;;;6.46;100.00;101162.13;5098079;28;20035;-55
2022/10/10 02:30:58;;;;;;;11.77;10.33;;;;;;;6.07;100.00;101094.56;5081384;28;20023;-51
2022/10/10 02:33:32;;;;;;;16.55;11.93;;;;;;;6.11;100.00;101091.91;5105646;28;20090;-53
2022/10/10 02:35:59;;;;;;;13.23;10.57;;;;;;;6.19;100.00;101110.09;5097108;28;20033;-52
2022/10/10 02:38:24;;;;;;;15.57;11.07;;;;;;;6.45;100.00;101147.28;5106066;28;20032;-53
2022/10/10 02:40:50;;;;;;;19.00;11.68;;;;;;;6.44;100.00;101152.56;5108954;28;20232;-57
2022/10/10 02:43:16;;;;;;;17.50;11.73;;;;;;;6.43;100.00;101137.75;5100056;28;20030;-53
2022/10/10 02:45:42;;;;;;;15.68;11.75;;;;;;;6.17;100.00;101094.44;5101804;28;20115;-52
2022/10/10 02:48:08;;;;;;;17.17;11.50;;;;;;;6.09;100.00;101077.13;5106118;28;20095;-54
2022/10/10 02:50:33;;;;;;;15.35;12.10;;;;;;;6.44;100.00;101145.59;5096884;28;20384;-55
2022/10/10 02:52:59;;;;;;;15.88;11.80;;;;;;;6.43;100.00;101136.00;5109488;28;20032;-53
2022/10/10 02:55:25;;;;;;;14.18;11.48;;;;;;;6.47;100.00;101134.22;5101085;28;20059;-57
2022/10/10 02:57:50;;;;;;;18.55;11.98;;;;;;;6.51;100.00;101147.22;5100874;28;20426;-53
2022/10/10 03:00:16;;;;;;;13.88;11.52;;;;;;;6.16;100.00;101086.59;5108367;28;20035;-53
2022/10/10 03:02:42;;;;;;;15.00;11.52;;;;;;;6.16;100.00;101077.03;5095271;28;20399;-55
2022/10/10 03:05:07;;;;;;;15.82;10.85;;;;;;;6.31;100.00;101098.66;5106981;28;20028;-58
2022/10/10 03:07:32;;;;;;;15.68;10.65;;;;;;;6.15;100.00;101069.22;5102336;28;20035;-54
2022/10/10 03:09:58;;;;;;;18.05;12.05;;;;;;;6.51;100.00;101136.78;5099587;28;20036;-57
2022/10/10 03:12:23;;;;;;;16.10;11.23;;;;;;;6.51;100.00;101130.69;5109244;28;20039;-56
2022/10/10 03:14:48;;;;;;;16.85;11.57;;;;;;;6.08;100.00;101068.41;5096364;28;20034;-58
2022/10/10 03:17:14;;;;;;;15.63;11.20;;;;;;;6.46;100.00;101120.28;5106831;28;20039;-58
2022/10/10 03:19:39;;;;;;;17.33;10.18;;;;;;;6.46;100.00;101125.50;5102980;28;20046;-53
2022/10/10 03:22:04;;;;;;;17.48;11.63;;;;;;;6.10;100.00;101078.88;5099643;28;20392;-57
2022/10/10 03:24:30;;;;;;;18.05;11.77;;;;;;;6.41;100.00;101121.22;5109693;28;20028;-52
2022/10/10 03:26:55;;;;;;;15.27;11.43;;;;;;;6.56;100.00;101123.66;5095602;28;20229;-52
2022/10/10 03:29:20;;;;;;;18.58;11.52;;;;;;;6.25;100.00;101068.22;5109291;28;20486;-54
2022/10/10 03:31:46;;;;;;;19.15;12.32;;;;;;;6.57;100.00;101113.16;5101033;28;20040;-55
2022/10/10 03:34:11;;;;;;;17.83;12.52;;;;;;;6.38;100.00;101061.13;5105833;28;20031;-55
2022/10/10 03:36:36;;;;;;;14.13;11.70;;;;;;;6.75;100.00;101143.47;5094703;28;20043;-52
2022/10/10 03:39:03;;;;;;;17.83;12.52;;;;;;;6.70;100.00;101125.22;5106736;28;20032;-51
2022/10/10 03:41:28;;;;;;;17.20;11.90;;;;;;;6.70;100.00;101125.22;5099574;28;20118;-52
2022/10/10 03:43:53;;;;;;;14.93;11.30;;;;;;;6.69;100.00;101126.09;5100509;28;20062;-49
2022/10/10 03:46:19;;;;;;;18.88;11.35;;;;;;;6.70;100.00;101125.22;5107964;28;20027;-51
2022/10/10 03:48:45;;;;;;;19.90;11.90;;;;;;;6.27;100.00;101053.41;5094865;28;20040;-49
2022/10/10 03:51:10;;;;;;;17.00;12.70;;;;;;;6.66;100.00;101117.41;5105060;28;20040;-50
2022/10/10 03:53:36;;;;;;;18.85;13.23;;;;;;;6.38;100.00;101064.59;5101692;28;20500;-49
2022/10/10 03:56:01;;;;;;;17.73;12.60;;;;;;;6.76;100.00;101127.78;5099442;28;20100;-54
2022/10/10 03:58:26;;;;;;;15.75;13.23;;;;;;;6.70;100.00;101099.06;5108368;28;20451;-49
2022/10/10 04:00:58;;;;;;;18.83;12.90;;;;;;;6.84;100.00;101127.66;5095890;28;20027;-49
2022/10/10 04:03:23;;;;;;;17.63;13.60;;;;;;;6.83;100.00;101112.84;5104871;28;20024;-51
2022/10/10 04:05:49;;;;;;;17.30;12.15;;;;;;;6.88;100.00;101121.53;5103619;28;20157;-51
2022/10/10 04:08:15;;;;;;;21.67;13.73;;;;;;;6.88;100.00;101120.66;5097503;28;20410;-53
2022/10/10 04:10:40;;;;;;;19.15;14.07;;;;;;;6.89;100.00;101122.41;5107402;28;20557;-51
2022/10/10 04:13:05;;;;;;;18.77;13.88;;;;;;;6.84;100.00;101108.47;5097330;28;20020;-52
2022/10/10 04:15:31;;;;;;;21.30;13.32;;;;;;;6.95;100.00;101115.31;5102208;28;20044;-48
2022/10/10 04:17:57;;;;;;;18.42;13.07;;;;;;;6.49;100.00;101046.16;5100123;28;20116;-52
2022/10/10 04:20:22;;;;;;;20.60;13.40;;;;;;;6.90;100.00;101116.25;5107982;28;20036;-54
2022/10/10 04:22:48;;;;;;;16.52;13.27;;;;;;;6.79;100.00;101105.94;5094725;28;20593;-51
2022/10/10 04:25:13;;;;;;;21.95;13.77;;;;;;;6.47;100.00;101047.94;5105733;28;20021;-53
2022/10/10 04:27:38;;;;;;;18.02;14.23;;;;;;;6.86;100.00;101112.81;5101767;28;20036;-52
2022/10/10 04:30:05;;;;;;;17.58;13.18;;;;;;;6.88;100.00;101110.19;5098935;28;20075;-49
2022/10/10 04:32:30;;;;;;;17.35;13.40;;;;;;;6.81;100.00;101093.69;5108889;28;20123;-48
2022/10/10 04:34:55;;;;;;;18.55;12.98;;;;;;;6.95;100.00;101112.69;5096115;28;20106;-51
2022/10/10 04:37:21;;;;;;;19.70;12.95;;;;;;;6.89;100.00;101109.31;5099874;28;20028;-52
2022/10/10 04:39:46;;;;;;;15.32;12.10;;;;;;;6.91;100.00;101123.22;5101607;28;20081;-50
2022/10/10 04:42:11;;;;;;;18.00;13.15;;;;;;;6.89;100.00;101112.78;5106243;28;20031;-49
2022/10/10 04:44:37;;;;;;;14.73;12.20;;;;;;;6.54;100.00;101062.63;5093810;28;20119;-51
2022/10/10 04:47:02;;;;;;;18.58;12.05;;;;;;;6.83;100.00;101117.25;5107059;28;20028;-51
2022/10/10 04:49:27;;;;;;;17.42;13.25;;;;;;;6.43;100.00;101054.94;5099861;28;20042;-56
2022/10/10 04:51:53;;;;;;;18.75;11.95;;;;;;;6.62;100.00;101089.59;5099898;28;20040;-57
2022/10/10 04:54:18;;;;;;;21.52;13.88;;;;;;;6.62;100.00;101089.59;5105771;28;20074;-54
2022/10/10 04:56:44;;;;;;;18.05;12.82;;;;;;;6.79;100.00;101119.03;5094934;28;20032;-56
2022/10/10 04:59:10;;;;;;;17.27;12.75;;;;;;;6.71;100.00;101113.88;5106313;28;20036;-52
2022/10/10 05:01:35;;;;;;;19.17;13.52;;;;;;;6.37;100.00;101047.16;5101311;28;20030;-49
2022/10/10 05:04:01;;;;;;;19.30;13.02;;;;;;;6.42;100.00;101066.28;5101055;28;20036;-51
2022/10/10 05:06:26;;;;;;;18.45;14.00;;;;;;;6.40;100.00;101061.94;5110943;28;20032;-49
2022/10/10 05:08:51;;;;;;;20.40;13.57;;;;;;;6.77;100.00;101120.81;5098762;28;20085;-52
2022/10/10 05:11:17;;;;;;;22.58;13.52;;;;;;;6.66;100.00;101106.97;5108684;28;20040;-54
2022/10/10 05:13:42;;;;;;;14.43;12.70;;;;;;;6.71;100.00;101123.50;5104343;28;20031;-55
2022/10/10 05:16:07;;;;;;;17.38;13.35;;;;;;;6.36;100.00;101065.50;5101641;28;20035;-52
2022/10/10 05:18:36;;;;;;;20.73;13.48;;;;;;;6.50;100.00;101085.38;5111000;28;20041;-50
2022/10/10 05:21:01;;;;;;;20.15;14.00;;;;;;;6.69;100.00;101123.50;5099700;28;20058;-51
2022/10/10 05:23:26;;;;;;;30.13;12.60;;;;;;;6.78;100.00;101133.84;5107409;27;20116;-53
2022/10/10 05:25:52;;;;;;;17.52;13.27;;;;;;;6.45;100.00;101079.31;5106892;28;20067;-54
2022/10/10 05:28:17;;;;;;;18.52;13.77;;;;;;;6.63;100.00;101105.25;5099858;28;20438;-53
2022/10/10 05:30:42;;;;;;;19.38;13.55;;;;;;;6.77;100.00;101139.13;5111635;28;20056;-58
2022/10/10 05:33:08;;;;;;;17.55;13.40;;;;;;;6.82;100.00;101133.81;5100864;28;20118;-53
2022/10/10 05:35:33;;;;;;;21.00;14.05;;;;;;;6.83;100.00;101132.94;5105917;27;20032;-55
2022/10/10 05:37:59;;;;;;;19.95;14.07;;;;;;;6.61;100.00;101093.09;5107834;28;20039;-52
2022/10/10 05:40:24;;;;;;;17.88;13.85;;;;;;;6.92;100.00;101124.97;5098800;28;20387;-53
2022/10/10 05:42:49;;;;;;;26.08;14.15;;;;;;;6.94;100.00;101129.28;5110183;28;20027;-53
2022/10/10 05:45:15;;;;;;;22.15;14.25;;;;;;;7.02;100.00;101144.88;5100304;28;20115;-51
2022/10/10 05:47:40;;;;;;;22.58;14.23;;;;;;;7.00;100.00;101134.47;5104848;28;20040;-54
2022/10/10 05:50:07;;;;;;;22.20;13.43;;;;;;;7.00;100.00;101138.81;5108316;28;20038;-48
2022/10/10 05:52:34;;;;;;;22.60;13.95;;;;;;;7.01;100.00;101136.16;5096597;28;20078;-53
2022/10/10 05:54:59;;;;;;;24.15;13.95;;;;;;;6.77;100.00;101084.16;5109150;28;20364;-53
2022/10/10 05:57:24;;;;;;;21.55;15.02;;;;;;;7.06;100.00;101123.91;5094557;28;20119;-51
2022/10/10 05:59:50;;;;;;;21.67;14.45;;;;;;;7.18;100.00;101143.81;5106316;28;20494;-52
2022/10/10 06:02:15;;;;;;;20.42;14.90;;;;;;;7.19;100.00;101142.91;5099956;28;20118;-53
2022/10/10 06:04:40;;;;;;;21.90;14.57;;;;;;;6.88;100.00;101070.94;5109954;28;20114;-50
2022/10/10 06:07:06;;;;;;;20.60;14.85;;;;;;;7.30;100.00;101136.63;5099069;28;20495;-48
2022/10/10 06:09:31;;;;;;;24.88;15.13;;;;;;;7.35;100.00;101129.56;5105579;28;20123;-53
2022/10/10 06:11:56;;;;;;;23.60;15.20;;;;;;;7.42;100.00;101146.06;5105253;28;20066;-52
2022/10/10 06:14:22;;;;;;;20.55;15.15;;;;;;;7.54;100.00;101129.31;5097978;28;20038;-53
2022/10/10 06:16:47;;;;;;;24.08;15.98;;;;;;;7.62;100.00;101132.66;5110697;28;20036;-51
2022/10/10 06:19:12;;;;;;;21.92;16.02;;;;;;;7.34;100.00;101067.63;5100377;28;20114;-52
2022/10/10 06:21:38;;;;;;;27.17;19.77;;;;;;;7.36;100.00;101067.59;5104769;28;20143;-54
2022/10/10 06:24:03;;;;;;;33.70;24.08;;;;;;;7.42;100.00;101071.88;5107265;28;20479;-56
2022/10/10 06:26:29;;;;;;;36.80;24.55;;;;;;;7.41;100.00;101067.53;5097250;28;20048;-53
2022/10/10 06:28:54;;;;;;;49.78;36.17;;;;;;;7.86;100.00;101148.00;5110867;28;20448;-53
2022/10/10 06:31:19;;;;;;;67.85;46.88;;;;;;;7.93;100.00;101149.63;5100900;28;20031;-54
2022/10/10 06:33:46;;;;;;;63.42;49.60;;;;;;;7.95;100.00;101126.88;5119272;27;20036;-56
2022/10/10 06:36:13;;;;;;;76.93;54.70;;;;;;;8.10;100.00;101160.69;5098434;28;20032;-56
2022/10/10 06:38:39;;;;;;;78.18;56.10;;;;;;;7.80;100.00;101093.94;5110415;28;20042;-54
2022/10/10 06:41:06;;;;;;;71.43;55.92;;;;;;;8.25;100.00;101160.44;5098600;28;20076;-52
2022/10/10 06:43:32;;;;;;;75.95;59.53;;;;;;;8.32;100.00;101169.06;5104161;28;20411;-54
2022/10/10 06:45:57;;;;;;;70.90;56.47;;;;;;;8.36;100.00;101157.66;5103872;28;20489;-51
2022/10/10 06:48:23;;;;;;;74.05;56.03;;;;;;;7.93;100.00;101079.75;5095639;28;20066;-54
2022/10/10 06:50:59;;;;;;;70.55;53.15;;;;;;;8.32;100.00;101138.47;5108292;28;20036;-57
2022/10/10 06:53:25;;;;;;;68.47;52.05;;;;;;;8.43;100.00;101160.13;5100675;28;20039;-52
2022/10/10 06:55:52;;;;;;;60.97;48.45;;;;;;;8.51;100.00;101160.00;5100837;28;20043;-54
2022/10/10 06:58:17;;;;;;;57.30;44.13;;;;;;;8.51;100.00;101138.13;5108491;28;20047;-52
2022/10/10 07:00:51;;;;;;;54.42;43.03;;;;;;;8.37;100.00;101096.44;5096800;28;20089;-63
2022/10/10 07:03:16;;;;;;;49.17;39.90;;;;;;;8.45;100.00;101095.41;5105749;28;20061;-60
2022/10/10 07:05:41;;;;;;;37.95;33.00;;;;;;;8.87;100.00;101155.78;5103326;28;20035;-60
2022/10/10 07:08:08;;;;;;;39.38;29.92;;;;;;;8.93;100.00;101161.75;5099589;28;20035;-62
2022/10/10 07:10:33;;;;;;;33.70;24.05;;;;;;;8.87;100.00;101119.03;5109731;28;20425;-64
2022/10/10 07:12:59;;;;;;;27.25;22.58;;;;;;;9.37;100.00;101184.47;5097509;28;20083;-61
2022/10/10 07:15:24;;;;;;;28.95;20.10;;;;;;;9.46;100.00;101181.63;5105537;28;20036;-61
2022/10/10 07:17:56;;;;;;;25.58;17.85;;;;;;;9.18;100.00;101117.47;5104361;28;20032;-62
2022/10/10 07:20:22;;;;;;;18.98;15.85;;;;;;;9.68;100.00;101181.16;5097295;28;20035;-61
2022/10/10 07:22:47;;;;;;;19.02;14.38;;;;;;;9.77;100.00;101173.91;5108284;28;20059;-63
2022/10/10 07:25:12;;;;;;;18.48;13.73;;;;;;;9.89;100.00;101170.13;5098464;28;20552;-63
2022/10/10 07:27:38;;;;;;;18.27;13.15;;;;;;;9.59;100.00;101095.50;5103555;28;20093;-62
2022/10/10 07:30:04;;;;;;;14.02;11.75;;;;;;;10.14;100.00;101160.75;5105981;28;20028;-63
2022/10/10 07:32:29;;;;;;;15.85;12.13;;;;;;;9.86;100.00;101097.47;5096504;28;20024;-60
2022/10/10 07:34:57;;;;;;;13.32;10.50;;;;;;;10.05;100.00;101103.94;5109440;28;20054;-61
2022/10/10 07:37:22;;;;;;;16.98;10.45;;;;;;;10.57;100.00;101177.13;5087883;28;20050;-63
2022/10/10 07:39:47;;;;;;;12.27;10.02;;;;;;;10.72;100.00;101160.94;5102109;28;20475;-61
2022/10/10 07:42:13;;;;;;;16.70;9.93;;;;;;;10.85;100.00;101147.41;5107398;28;20057;-61
2022/10/10 07:44:38;;;;;;;16.17;8.88;;;;;;;10.88;100.00;101105.19;5094744;28;20043;-62
2022/10/10 07:47:03;;;;;;;15.45;8.25;;;;;;;11.26;100.00;101141.81;5107476;28;20036;-61
2022/10/10 07:49:29;;;;;;;10.57;8.02;;;;;;;11.53;100.00;101177.00;5100877;28;20036;-61
2022/10/10 07:51:54;;;;;;;14.95;8.23;;;;;;;11.55;100.00;101168.13;5097440;28;20122;-63
2022/10/10 07:54:20;;;;;;;11.15;8.45;;;;;;;11.67;100.00;101182.72;5090182;28;20459;-61
2022/10/10 07:56:45;;;;;;;11.20;8.20;;;;;;;11.43;100.00;101143.91;5091074;28;20119;-64
2022/10/10 07:59:10;;;;;;;9.10;8.10;;;;;;;11.42;100.00;101136.91;5091510;28;20137;-63
2022/10/10 08:01:36;;;;;;;10.20;7.20;;;;;;;11.73;100.00;101188.66;5092252;28;20060;-61
2022/10/10 08:04:01;;;;;;;13.60;8.55;;;;;;;11.93;100.00;101217.06;5091463;28;20044;-60
2022/10/10 08:06:26;;;;;;;8.57;7.75;;;;;;;11.73;100.00;101179.91;5092436;28;20024;-62
2022/10/10 08:08:52;;;;;;;13.90;8.68;;;;;;;11.96;100.00;101230.16;5090531;28;20380;-62
2022/10/10 08:11:19;;;;;;;10.70;8.07;;;;;;;11.66;100.00;101155.47;5091006;28;20395;-62
2022/10/10 08:13:44;;;;;;;10.25;7.55;;;;;;;12.18;100.00;101225.91;5089803;28;20024;-62
2022/10/10 08:16:10;;;;;;;13.15;7.90;;;;;;;12.18;100.00;101225.03;5089483;28;20036;-60
2022/10/10 08:18:35;;;;;;;12.60;8.48;;;;;;;12.35;100.00;101235.91;5089577;28;20047;-62
2022/10/10 08:21:03;;;;;;;10.35;8.43;;;;;;;12.03;100.00;101176.25;5089261;28;20067;-63
2022/10/10 08:23:28;;;;;;;11.18;8.38;;;;;;;12.29;100.00;101209.69;5090859;28;20459;-64
2022/10/10 08:25:57;;;;;;;11.75;9.50;;;;;;;12.32;100.00;101206.97;5105431;28;20046;-63
2022/10/10 08:28:22;;;;;;;14.23;8.57;;;;;;;12.50;100.00;101240.66;5090670;28;20055;-66
2022/10/10 08:30:48;;;;;;;13.02;8.07;;;;;;;12.13;100.00;101185.63;5089911;28;20489;-65
2022/10/10 08:33:13;;;;;;;10.45;7.82;;;;;;;12.26;100.00;101202.75;5090446;28;20040;-67
2022/10/10 08:35:39;;;;;;;14.10;8.52;;;;;;;12.51;100.00;101245.03;5091055;28;20036;-61
2022/10/10 08:38:04;;;;;;;9.35;7.63;;;;;;;12.14;100.00;101170.66;5093972;28;20028;-67
2022/10/10 08:40:30;;;;;;;15.70;9.02;;;;;;;12.56;100.00;101244.88;5095050;28;20036;-64
2022/10/10 08:42:57;;;;;;;11.15;8.32;;;;;;;12.58;100.00;101254.47;5076704;28;20040;-62
2022/10/10 08:45:26;;;;;;;11.23;7.43;;;;;;;12.62;100.00;101237.63;5093331;28;20028;-66
2022/10/10 08:47:52;;;;;;;9.90;7.75;;;;;;;12.63;100.00;101241.13;5076674;28;20459;-65
2022/10/10 08:50:23;;;;;;;14.33;7.80;;;;;;;12.73;100.00;101250.44;5093019;28;20093;-66
2022/10/10 08:52:57;;;;;;;12.00;8.32;;;;;;;12.79;100.00;101234.38;5092772;28;20331;-65
2022/10/10 08:55:29;;;;;;;10.45;8.18;;;;;;;12.86;100.00;101238.53;5093480;28;20036;-64
2022/10/10 08:58:26;;;;;;;14.43;7.72;;;;;;;13.05;100.00;101244.88;5093468;28;20028;-65
2022/10/10 09:00:57;;;;;;;13.75;8.95;;;;;;;13.19;100.00;101262.94;5092606;28;20024;-63
2022/10/10 09:03:26;;;;;;;;;;;;;;;13.34;100.00;101265.00;5093677;28;20387;-63
2022/10/10 09:06:01;;;;;;;11.45;7.00;;;;;;;13.30;100.00;101255.47;5093052;28;20369;-62
2022/10/10 09:08:35;;;;;;;12.18;7.35;;;;;;;13.03;100.00;101193.88;5094487;28;20485;-64
2022/10/10 09:11:17;;;;;;;11.27;8.15;;;;;;;13.60;100.00;101267.53;5092336;28;20058;-62
2022/10/10 09:14:06;;;;;;;13.90;7.38;;;;;;;13.44;100.00;101210.84;5092321;28;20475;-67
2022/10/10 09:16:46;;;;;;;11.52;7.32;;;;;;;14.00;100.00;101277.44;5093966;28;20065;-67
2022/10/10 09:19:31;;;;;;;11.93;7.78;;;;;;;13.86;100.00;101214.50;5092731;28;20383;-64
2022/10/10 09:21:59;;;;;;;12.05;7.18;;;;;;;14.47;100.00;101268.47;5094013;28;20131;-64
2022/10/10 09:24:31;;;;;;;12.15;6.90;;;;;;;14.40;100.00;101232.56;5075764;28;20431;-62
2022/10/10 09:27:04;;;;;;;16.40;7.32;;;;;;;14.87;100.00;101290.63;5091914;28;20259;-66
2022/10/10 09:29:45;;;;;;;10.52;5.95;;;;;;;15.14;100.00;101279.72;5093570;28;20368;-63
2022/10/10 09:32:16;;;;;;;10.07;6.70;;;;;;;15.66;100.00;101294.16;5092933;28;20043;-62
2022/10/10 09:34:51;;;;;;;8.90;6.30;;;;;;;16.04;100.00;101312.75;5093082;28;20055;-63
2022/10/10 09:37:24;;;;;;;9.93;5.38;;;;;;;15.87;100.00;101263.09;5090935;28;20040;-64
2022/10/10 09:39:57;;;;;;;8.68;6.47;;;;;;;16.03;100.00;101314.53;5074276;28;20027;-63
2022/10/10 09:42:37;;;;;;;12.48;6.60;;;;;;;15.90;100.00;101316.06;5092083;28;20036;-66
2022/10/10 09:45:08;;;;;;;8.25;6.75;;;;;;;15.86;100.00;101318.91;5091593;28;20452;-62
2022/10/10 09:47:34;;;;;;;9.93;5.40;;;;;;;15.44;100.00;101260.69;5093300;28;20055;-64
2022/10/10 09:49:59;;;;;;;8.90;6.25;;;;;;;15.72;100.00;101325.72;5091553;28;20024;-67
2022/10/10 09:52:24;;;;;;;11.90;6.20;;;;;;;15.63;100.00;101333.25;5093370;28;20064;-64
2022/10/10 09:55:02;;;;;;;9.75;6.45;;;;;;;15.40;100.00;101302.41;5092639;28;20083;-63
2022/10/10 09:57:33;;;;;;;7.53;5.82;;;;;;;15.60;100.00;101325.41;5092155;28;20126;-63
2022/10/10 09:59:58;;;;;;;11.13;6.00;;;;;;;15.71;100.00;101334.63;5092540;28;20118;-64
2022/10/10 10:02:26;;;;;;;8.88;5.38;;;;;;;15.79;100.00;101277.66;5092890;28;20116;-62
2022/10/10 10:04:53;;;;;;;12.07;6.15;;;;;;;16.31;100.00;101275.06;5093334;28;20032;-64
2022/10/10 10:07:28;;;;;;;10.05;6.13;;;;;;;17.29;100.00;101351.66;5092004;28;20044;-64
2022/10/10 10:09:59;;;;;;;11.10;5.60;;;;;;;17.43;100.00;101303.88;5092042;28;20463;-64
2022/10/10 10:12:28;;;;;;;10.60;5.50;;;;;;;17.41;100.00;101318.22;5091711;28;20036;-63
2022/10/10 10:14:59;;;;;;;9.70;5.25;;;;;;;17.15;100.00;101313.41;5091754;28;20028;-62
2022/10/10 10:17:24;;;;;;;;;;;;;;;17.13;100.00;101369.31;5091901;28;20043;-61
2022/10/10 10:19:50;;;;;;;11.50;5.30;;;;;;;16.53;100.00;101321.84;5091467;28;19926;-65
2022/10/10 10:22:37;;;;;;;6.45;4.80;;;;;;;16.14;100.00;101306.06;5091321;28;20054;-61
2022/10/10 10:25:40;;;;;;;9.20;5.60;;;;;;;16.20;100.00;101369.50;5091911;28;20032;-61
2022/10/10 10:28:14;;;;;;;8.70;5.78;;;;;;;15.91;100.00;101352.28;5083304;28;20051;-61
2022/10/10 10:30:41;;;;;;;8.80;5.80;;;;;;;15.56;100.00;101322.03;5092271;28;20073;-65
2022/10/10 10:33:25;;;;;;;7.30;5.75;;;;;;;15.81;100.00;101387.28;5091661;28;20055;-62
2022/10/10 10:36:20;;;;;;;10.15;5.70;;;;;;;15.76;100.00;101391.00;5092750;28;20036;-62
2022/10/10 10:38:50;;;;;;;10.93;5.60;;;;;;;15.70;100.00;101391.25;5068535;28;20429;-63
2022/10/10 10:41:37;;;;;;;7.82;5.47;;;;;;;15.72;100.00;101389.44;5090745;28;20028;-65
2022/10/10 10:44:19;;;;;;;10.98;5.63;;;;;;;15.97;100.00;101391.81;5049728;28;20101;-65
2022/10/10 10:47:22;;;;;;;8.30;5.50;;;;;;;16.36;100.00;101380.25;5092196;28;20032;-64
2022/10/10 10:50:09;;;;;;;10.38;5.25;;;;;;;16.53;100.00;101393.59;5091755;28;20075;-64
2022/10/10 10:53:03;;;;;;;10.32;5.47;;;;;;;16.61;100.00;101392.31;5091238;28;20032;-63
2022/10/10 10:55:43;;;;;;;9.40;4.57;;;;;;;16.62;100.00;101403.81;5086499;28;20032;-64
2022/10/10 10:58:33;;;;;;;10.38;5.20;;;;;;;16.54;100.00;101392.72;5091822;28;20445;-63
2022/10/10 11:01:29;;;;;;;7.93;4.93;;;;;;;16.44;100.00;101402.88;5090184;28;20115;-64
2022/10/10 11:03:59;;;;;;;8.52;5.40;;;;;;;16.39;100.00;101401.38;5080347;28;20347;-65
2022/10/10 11:06:34;;;;;;;12.93;5.15;;;;;;;16.21;100.00;101387.16;5091162;28;20131;-62
2022/10/10 11:09:30;;;;;;;11.02;4.65;;;;;;;16.10;100.00;101387.69;5092051;28;20474;-64
2022/10/10 11:12:10;;;;;;;8.88;5.00;;;;;;;15.95;100.00;101393.69;5092260;28;20083;-66
2022/10/10 11:14:39;;;;;;;11.93;4.65;;;;;;;15.88;100.00;101394.06;5092157;28;20150;-62
2022/10/10 11:17:44;;;;;;;14.38;5.05;;;;;;;15.65;100.00;101374.69;5090780;28;20032;-63
2022/10/10 11:20:33;;;;;;;8.88;4.68;;;;;;;15.53;100.00;101380.53;5060226;28;20052;-62
2022/10/10 11:23:10;;;;;;;11.52;5.20;;;;;;;15.27;100.00;101327.75;5089836;28;20060;-65